Time;durP1;ratioP1;P1;durP2;ratioP2;P2;SDS_P1;SDS_P2;PMS_P1;PMS_P2;Temp;Humidity;BMP_temperature;BMP_pressure;BME280_temperature;BME280_humidity;BME280_pressure;Samples;Min_cycle;Max_cycle;Signal;HPM_P1;HPM_P2
2021/07/05 00:02:05;;;;;;;7.53;4.57;;;;;;;;;;5008441;28;20030;-82
2021/07/05 00:04:31;;;;;;;4.88;4.32;;;;;;;;;;5007875;28;20053;-81
2021/07/05 00:06:56;;;;;;;7.75;4.45;;;;;;;;;;5011589;28;20038;-82
2021/07/05 00:09:22;;;;;;;5.47;4.72;;;;;;;;;;4996416;28;20026;-82
2021/07/05 00:11:47;;;;;;;5.18;4.03;;;;;;;;;;4994012;28;20034;-82
2021/07/05 00:14:14;;;;;;;4.30;3.67;;;;;;;;;;5005639;28;20046;-82
2021/07/05 00:16:39;;;;;;;5.47;4.22;;;;;;;;;;4995321;28;20029;-82
2021/07/05 00:19:05;;;;;;;4.60;3.63;;;;;;;;;;5012133;28;20667;-82
2021/07/05 00:21:31;;;;;;;4.90;3.90;;;;;;;;;;5015373;28;20041;-82
2021/07/05 00:23:57;;;;;;;4.53;3.72;;;;;;;;;;5027804;28;20396;-82
2021/07/05 00:26:22;;;;;;;5.35;3.85;;;;;;;;;;5015336;28;20033;-82
2021/07/05 00:28:48;;;;;;;3.85;3.33;;;;;;;;;;5032195;28;20057;-82
2021/07/05 00:31:13;;;;;;;4.68;3.78;;;;;;;;;;4985874;28;20044;-82
2021/07/05 00:33:38;;;;;;;4.47;3.38;;;;;;;;;;4999963;28;20045;-82
2021/07/05 00:36:04;;;;;;;3.53;2.70;;;;;;;;;;5011359;28;20034;-82
2021/07/05 00:38:31;;;;;;;3.35;2.45;;;;;;;;;;5016557;28;20077;-82
2021/07/05 00:40:56;;;;;;;4.25;2.85;;;;;;;;;;5016585;28;20034;-82
2021/07/05 00:43:22;;;;;;;3.50;2.58;;;;;;;;;;5014835;28;20094;-82
2021/07/05 00:45:47;;;;;;;3.90;2.92;;;;;;;;;;5016168;28;20030;-82
2021/07/05 00:48:14;;;;;;;4.60;2.65;;;;;;;;;;5010001;28;20521;-82
2021/07/05 00:50:39;;;;;;;3.50;2.67;;;;;;;;;;5002179;28;20036;-82
2021/07/05 00:53:05;;;;;;;5.05;2.95;;;;;;;;;;4999019;28;20405;-82
2021/07/05 00:55:32;;;;;;;4.10;3.28;;;;;;;;;;5016694;28;20026;-82
2021/07/05 00:57:58;;;;;;;4.63;3.80;;;;;;;;;;5000052;28;20034;-82
2021/07/05 01:00:25;;;;;;;5.32;4.35;;;;;;;;;;5010109;28;20038;-82
2021/07/05 01:02:52;;;;;;;4.88;3.70;;;;;;;;;;5014083;28;20026;-82
2021/07/05 01:05:18;;;;;;;5.47;4.65;;;;;;;;;;5018462;28;20101;-82
2021/07/05 01:07:45;;;;;;;5.68;4.50;;;;;;;;;;5033654;28;20030;-82
2021/07/05 01:10:13;;;;;;;5.68;4.28;;;;;;;;;;5018117;28;20033;-82
2021/07/05 01:12:39;;;;;;;4.30;3.30;;;;;;;;;;5031612;28;20029;-82
2021/07/05 01:15:07;;;;;;;5.25;4.30;;;;;;;;;;5017822;28;20033;-82
2021/07/05 01:17:33;;;;;;;5.28;3.50;;;;;;;;;;5030214;28;20057;-82
2021/07/05 01:19:59;;;;;;;4.00;3.33;;;;;;;;;;5030332;28;20049;-82
2021/07/05 01:22:24;;;;;;;4.25;3.42;;;;;;;;;;5013828;28;20448;-82
2021/07/05 01:24:49;;;;;;;3.65;2.97;;;;;;;;;;4998666;28;20041;-82
2021/07/05 01:27:17;;;;;;;4.55;3.55;;;;;;;;;;4998874;28;20354;-82
2021/07/05 01:29:42;;;;;;;3.95;3.15;;;;;;;;;;5013788;28;20371;-82
2021/07/05 01:32:09;;;;;;;5.18;3.40;;;;;;;;;;5029946;28;20065;-82
2021/07/05 01:34:35;;;;;;;5.22;3.22;;;;;;;;;;4984025;28;20030;-82
2021/07/05 01:37:02;;;;;;;5.32;3.10;;;;;;;;;;5018313;28;20037;-82
2021/07/05 01:39:27;;;;;;;4.57;3.13;;;;;;;;;;5016509;28;20029;-82
2021/07/05 01:41:53;;;;;;;3.90;3.10;;;;;;;;;;5015930;28;20128;-82
2021/07/05 01:44:19;;;;;;;4.80;3.25;;;;;;;;;;5018203;28;20041;-82
2021/07/05 01:46:44;;;;;;;3.50;2.80;;;;;;;;;;5001395;28;20555;-81
2021/07/05 01:49:11;;;;;;;3.72;2.72;;;;;;;;;;5012194;28;20054;-82
2021/07/05 01:51:37;;;;;;;3.42;2.67;;;;;;;;;;5011285;28;20030;-82
2021/07/05 01:54:03;;;;;;;5.78;3.00;;;;;;;;;;5009971;28;20022;-82
2021/07/05 01:56:30;;;;;;;4.32;2.70;;;;;;;;;;5013163;28;20061;-82
2021/07/05 01:58:55;;;;;;;5.15;2.90;;;;;;;;;;4998548;28;20129;-82
2021/07/05 02:01:21;;;;;;;3.67;2.90;;;;;;;;;;5013976;28;20065;-82
2021/07/05 02:03:46;;;;;;;3.28;2.50;;;;;;;;;;5017502;28;20053;-82
2021/07/05 02:06:12;;;;;;;5.70;3.15;;;;;;;;;;5016521;28;20046;-82
2021/07/05 02:08:38;;;;;;;5.00;3.53;;;;;;;;;;5011590;28;20026;-82
2021/07/05 02:11:04;;;;;;;3.88;2.97;;;;;;;;;;5032215;28;20029;-82
2021/07/05 02:13:32;;;;;;;3.70;2.80;;;;;;;;;;5007154;28;20034;-82
2021/07/05 02:15:59;;;;;;;5.10;3.70;;;;;;;;;;5015599;28;20034;-82
2021/07/05 02:18:26;;;;;;;4.28;3.13;;;;;;;;;;5013353;28;20081;-82
2021/07/05 02:20:52;;;;;;;5.05;3.60;;;;;;;;;;5021139;28;20041;-82
2021/07/05 02:23:20;;;;;;;6.28;3.50;;;;;;;;;;5013031;28;20037;-82
2021/07/05 02:25:47;;;;;;;5.13;3.90;;;;;;;;;;4996419;28;20046;-82
2021/07/05 02:28:22;;;;;;;6.57;4.10;;;;;;;;;;5014461;28;20366;-81
2021/07/05 02:30:50;;;;;;;5.95;4.35;;;;;;;;;;5026590;28;20731;-82
2021/07/05 02:33:28;;;;;;;6.18;4.22;;;;;;;;;;5013207;28;20133;-81
2021/07/05 02:35:54;;;;;;;5.95;4.93;;;;;;;;;;5019486;28;20021;-82
2021/07/05 02:38:21;;;;;;;7.47;4.80;;;;;;;;;;5031139;28;20034;-82
2021/07/05 02:40:55;;;;;;;7.53;5.10;;;;;;;;;;4996890;28;20499;-82
2021/07/05 02:43:21;;;;;;;6.75;4.63;;;;;;;;;;5017614;28;20026;-82
2021/07/05 02:45:48;;;;;;;7.68;4.70;;;;;;;;;;5017090;28;20156;-82
2021/07/05 02:48:16;;;;;;;7.22;4.00;;;;;;;;;;5015136;28;20049;-82
2021/07/05 02:50:44;;;;;;;6.68;4.18;;;;;;;;;;5016593;28;20017;-82
2021/07/05 02:53:10;;;;;;;5.55;3.55;;;;;;;;;;5032232;28;20389;-82
2021/07/05 02:55:36;;;;;;;5.82;2.92;;;;;;;;;;5017858;28;20113;-82
2021/07/05 02:58:03;;;;;;;6.13;3.00;;;;;;;;;;5015535;28;20793;-82
2021/07/05 03:00:33;;;;;;;4.53;2.53;;;;;;;;;;5013123;28;20045;-82
2021/07/05 03:02:58;;;;;;;5.28;2.40;;;;;;;;;;5012560;28;20033;-82
2021/07/05 03:05:26;;;;;;;4.45;2.05;;;;;;;;;;5018333;28;20038;-82
2021/07/05 03:07:52;;;;;;;5.65;2.08;;;;;;;;;;5014894;28;20030;-82
2021/07/05 03:10:21;;;;;;;4.40;2.00;;;;;;;;;;4997095;28;20120;-82
2021/07/05 03:12:47;;;;;;;4.90;2.17;;;;;;;;;;5031013;28;20056;-83
2021/07/05 03:15:14;;;;;;;5.82;2.25;;;;;;;;;;5004665;28;20034;-83
2021/07/05 03:17:41;;;;;;;7.95;2.70;;;;;;;;;;5017498;28;20061;-83
2021/07/05 03:20:09;;;;;;;4.70;2.60;;;;;;;;;;5010140;28;20076;-83
2021/07/05 03:22:35;;;;;;;4.07;2.25;;;;;;;;;;4997916;28;20034;-83
2021/07/05 03:25:03;;;;;;;8.48;2.70;;;;;;;;;;4984859;28;20121;-83
2021/07/05 03:27:28;;;;;;;3.42;1.92;;;;;;;;;;5029105;28;20049;-83
2021/07/05 03:29:55;;;;;;;4.25;2.13;;;;;;;;;;5014419;28;20093;-83
2021/07/05 03:32:21;;;;;;;4.95;2.13;;;;;;;;;;5015644;28;20863;-83
2021/07/05 03:34:46;;;;;;;4.85;2.15;;;;;;;;;;5010014;28;20049;-83
2021/07/05 03:37:12;;;;;;;4.53;2.40;;;;;;;;;;4995825;28;20034;-83
2021/07/05 03:39:37;;;;;;;3.58;2.00;;;;;;;;;;5010802;28;20033;-83
2021/07/05 03:42:03;;;;;;;5.18;2.25;;;;;;;;;;5009434;28;20038;-83
2021/07/05 03:44:29;;;;;;;2.58;1.60;;;;;;;;;;5012007;28;20044;-83
2021/07/05 03:46:54;;;;;;;2.75;1.63;;;;;;;;;;5011683;28;20108;-83
2021/07/05 03:49:20;;;;;;;5.85;2.15;;;;;;;;;;5009275;28;20081;-83
2021/07/05 03:51:46;;;;;;;3.75;1.92;;;;;;;;;;4985339;28;20033;-83
2021/07/05 03:54:12;;;;;;;4.88;2.17;;;;;;;;;;5029295;28;20097;-83
2021/07/05 03:56:37;;;;;;;3.47;2.00;;;;;;;;;;5016712;28;20423;-83
2021/07/05 03:59:03;;;;;;;4.50;2.03;;;;;;;;;;5013657;28;20032;-84
2021/07/05 04:01:28;;;;;;;3.10;1.80;;;;;;;;;;5013832;28;20030;-84
2021/07/05 04:03:54;;;;;;;4.35;1.98;;;;;;;;;;5030341;28;20032;-84
2021/07/05 04:06:19;;;;;;;3.08;1.90;;;;;;;;;;4995844;28;20096;-84
2021/07/05 04:08:45;;;;;;;5.78;2.60;;;;;;;;;;5012942;28;20041;-84
2021/07/05 04:11:10;;;;;;;3.40;1.92;;;;;;;;;;4992541;28;20061;-84
2021/07/05 04:13:36;;;;;;;3.40;1.90;;;;;;;;;;5009928;28;20026;-84
2021/07/05 04:16:01;;;;;;;3.10;1.60;;;;;;;;;;5011841;28;20381;-84
2021/07/05 04:18:27;;;;;;;3.20;1.90;;;;;;;;;;5012089;28;20026;-84
2021/07/05 04:20:53;;;;;;;3.88;1.83;;;;;;;;;;5015379;28;20477;-84
2021/07/05 04:23:20;;;;;;;4.15;2.03;;;;;;;;;;5031331;28;20021;-84
2021/07/05 04:25:46;;;;;;;6.57;2.22;;;;;;;;;;5013902;28;20061;-84
2021/07/05 04:28:13;;;;;;;4.78;2.20;;;;;;;;;;5021207;28;20034;-84
2021/07/05 04:30:38;;;;;;;4.38;2.20;;;;;;;;;;5005970;28;21836;-84
2021/07/05 04:33:04;;;;;;;6.07;2.42;;;;;;;;;;5033574;28;20049;-83
2021/07/05 04:35:31;;;;;;;4.97;2.42;;;;;;;;;;5016341;28;20036;-83
2021/07/05 04:37:58;;;;;;;4.75;2.50;;;;;;;;;;5034218;28;20029;-83
2021/07/05 04:40:30;;;;;;;5.18;2.40;;;;;;;;;;5033174;28;20017;-83
2021/07/05 04:42:56;;;;;;;3.77;2.67;;;;;;;;;;5015179;28;20034;-83
2021/07/05 04:45:27;;;;;;;4.72;2.55;;;;;;;;;;5014325;28;20315;-83
2021/07/05 04:47:53;;;;;;;6.95;2.80;;;;;;;;;;5017204;28;20411;-83
2021/07/05 04:50:18;;;;;;;4.78;2.55;;;;;;;;;;5002711;28;20108;-83
2021/07/05 04:52:44;;;;;;;6.68;2.90;;;;;;;;;;5026210;28;20034;-83
2021/07/05 04:55:12;;;;;;;4.97;2.90;;;;;;;;;;5012855;28;20041;-83
2021/07/05 04:57:39;;;;;;;6.18;3.25;;;;;;;;;;5030537;28;20037;-83
2021/07/05 05:00:09;;;;;;;5.50;2.90;;;;;;;;;;5032842;28;20584;-83
2021/07/05 05:02:34;;;;;;;7.20;3.10;;;;;;;;;;5031885;28;20030;-83
2021/07/05 05:05:00;;;;;;;7.40;3.30;;;;;;;;;;5015630;28;20030;-83
2021/07/05 05:07:25;;;;;;;4.15;2.72;;;;;;;;;;5016332;28;20440;-83
2021/07/05 05:09:52;;;;;;;6.47;3.13;;;;;;;;;;5000818;28;20054;-83
2021/07/05 05:12:18;;;;;;;6.13;3.13;;;;;;;;;;5016075;28;20041;-83
2021/07/05 05:14:43;;;;;;;6.30;2.80;;;;;;;;;;5012068;28;20042;-83
2021/07/05 05:17:08;;;;;;;7.10;3.92;;;;;;;;;;5000020;28;20389;-83
2021/07/05 05:19:34;;;;;;;6.32;3.47;;;;;;;;;;5015970;28;20501;-83
2021/07/05 05:22:00;;;;;;;6.20;3.30;;;;;;;;;;5004216;28;20025;-83
2021/07/05 05:24:26;;;;;;;5.38;2.88;;;;;;;;;;4999985;28;20025;-83
2021/07/05 05:26:52;;;;;;;6.82;4.15;;;;;;;;;;5017358;28;20026;-83
2021/07/05 05:29:18;;;;;;;4.75;3.17;;;;;;;;;;4993193;28;20045;-83
2021/07/05 05:31:44;;;;;;;5.82;3.00;;;;;;;;;;5007622;28;20045;-83
2021/07/05 05:34:09;;;;;;;6.35;3.30;;;;;;;;;;5026300;28;20075;-83
2021/07/05 05:36:35;;;;;;;6.85;3.83;;;;;;;;;;5009071;28;20034;-83
2021/07/05 05:39:01;;;;;;;6.93;3.65;;;;;;;;;;5028097;28;20056;-83
2021/07/05 05:41:27;;;;;;;6.97;3.60;;;;;;;;;;5013813;28;20029;-84
2021/07/05 05:43:52;;;;;;;5.47;3.10;;;;;;;;;;5011724;28;20034;-83
2021/07/05 05:46:18;;;;;;;5.35;3.17;;;;;;;;;;5010143;28;20026;-83
2021/07/05 05:48:49;;;;;;;6.25;3.75;;;;;;;;;;4980640;28;20046;-83
2021/07/05 05:51:14;;;;;;;6.75;3.25;;;;;;;;;;5011557;28;20112;-83
2021/07/05 05:53:40;;;;;;;6.90;3.53;;;;;;;;;;5027821;28;20068;-83
2021/07/05 05:56:05;;;;;;;7.53;3.78;;;;;;;;;;4994861;28;20048;-83
2021/07/05 05:58:35;;;;;;;10.73;4.53;;;;;;;;;;5027394;28;20462;-83
2021/07/05 06:01:00;;;;;;;7.85;4.03;;;;;;;;;;5012802;28;20033;-83
2021/07/05 06:03:26;;;;;;;5.32;3.53;;;;;;;;;;4995130;28;20103;-83
2021/07/05 06:05:52;;;;;;;8.65;4.30;;;;;;;;;;4998566;28;20042;-83
2021/07/05 06:08:17;;;;;;;8.10;4.43;;;;;;;;;;4983745;28;20486;-84
2021/07/05 06:10:43;;;;;;;6.72;3.88;;;;;;;;;;5015792;28;20057;-83
2021/07/05 06:13:08;;;;;;;8.32;3.80;;;;;;;;;;5006774;28;20037;-83
2021/07/05 06:15:34;;;;;;;6.10;3.90;;;;;;;;;;4999367;28;20125;-83
2021/07/05 06:18:01;;;;;;;6.45;3.58;;;;;;;;;;5017508;28;20037;-83
2021/07/05 06:20:27;;;;;;;7.00;3.95;;;;;;;;;;4998408;28;20034;-83
2021/07/05 06:22:55;;;;;;;7.53;4.00;;;;;;;;;;5015051;28;20076;-83
2021/07/05 06:25:20;;;;;;;7.72;3.90;;;;;;;;;;5014953;28;20044;-84
2021/07/05 06:27:46;;;;;;;6.75;3.95;;;;;;;;;;4982817;28;20116;-83
2021/07/05 06:30:12;;;;;;;7.85;4.30;;;;;;;;;;5016920;28;21798;-83
2021/07/05 06:32:38;;;;;;;7.85;4.22;;;;;;;;;;5014678;28;20029;-83
2021/07/05 06:35:04;;;;;;;7.72;3.78;;;;;;;;;;4999524;28;20041;-83
2021/07/05 06:37:30;;;;;;;6.22;3.67;;;;;;;;;;5000200;28;20033;-83
2021/07/05 06:39:55;;;;;;;7.80;3.95;;;;;;;;;;5017595;28;20025;-83
2021/07/05 06:42:21;;;;;;;6.75;3.80;;;;;;;;;;5015459;28;20124;-83
2021/07/05 06:44:49;;;;;;;6.82;3.58;;;;;;;;;;5011262;28;20925;-83
2021/07/05 06:47:16;;;;;;;4.95;3.08;;;;;;;;;;5009899;28;20100;-83
2021/07/05 06:49:43;;;;;;;10.70;4.55;;;;;;;;;;5015615;28;21351;-82
2021/07/05 06:52:09;;;;;;;8.32;4.38;;;;;;;;;;5014521;28;20026;-84
2021/07/05 06:54:34;;;;;;;6.30;3.60;;;;;;;;;;5013320;28;20084;-83
2021/07/05 06:57:00;;;;;;;7.05;3.78;;;;;;;;;;5015854;28;20697;-83
2021/07/05 06:59:26;;;;;;;5.78;3.58;;;;;;;;;;5017614;28;20044;-82
2021/07/05 07:01:52;;;;;;;5.40;3.30;;;;;;;;;;5014782;28;20136;-83
2021/07/05 07:04:18;;;;;;;6.57;3.58;;;;;;;;;;5013062;28;20029;-82
2021/07/05 07:06:48;;;;;;;9.50;3.92;;;;;;;;;;5014277;28;20034;-83
2021/07/05 07:09:14;;;;;;;6.40;3.50;;;;;;;;;;5016830;28;20034;-82
2021/07/05 07:11:40;;;;;;;5.50;3.33;;;;;;;;;;5017894;28;20049;-83
2021/07/05 07:14:05;;;;;;;6.93;3.65;;;;;;;;;;5016629;28;20033;-82
2021/07/05 07:16:36;;;;;;;7.10;3.47;;;;;;;;;;5001226;28;20018;-83
2021/07/05 07:19:17;;;;;;;7.32;3.83;;;;;;;;;;5003246;28;20443;-83
2021/07/05 07:21:48;;;;;;;6.10;3.33;;;;;;;;;;5016713;28;20093;-83
2021/07/05 07:24:15;;;;;;;7.35;3.30;;;;;;;;;;5031485;28;20033;-83
2021/07/05 07:26:40;;;;;;;7.95;3.65;;;;;;;;;;4997347;28;20121;-83
2021/07/05 07:29:06;;;;;;;6.30;3.38;;;;;;;;;;5008163;28;20068;-83
2021/07/05 07:31:39;;;;;;;7.40;4.20;;;;;;;;;;5011614;28;20133;-83
2021/07/05 07:34:05;;;;;;;;;;;;;;;;;;4992550;28;20037;-83
2021/07/05 07:36:31;;;;;;;7.85;3.33;;;;;;;;;;5019342;28;19913;-83
2021/07/05 07:39:03;;;;;;;8.25;3.70;;;;;;;;;;5021556;28;20032;-83
2021/07/05 07:41:31;;;;;;;6.03;3.45;;;;;;;;;;5021407;28;20041;-83
2021/07/05 07:43:58;;;;;;;7.97;3.38;;;;;;;;;;5021567;28;20030;-83
2021/07/05 07:46:24;;;;;;;8.43;4.15;;;;;;;;;;5000359;28;20038;-83
2021/07/05 07:48:51;;;;;;;7.93;4.10;;;;;;;;;;5017513;28;20053;-83
2021/07/05 07:51:19;;;;;;;5.97;3.50;;;;;;;;;;5016170;28;20029;-83
2021/07/05 07:53:45;;;;;;;5.88;3.05;;;;;;;;;;5019411;28;20315;-83
2021/07/05 07:56:11;;;;;;;5.47;3.58;;;;;;;;;;5002776;28;20037;-83
2021/07/05 07:58:37;;;;;;;5.78;3.35;;;;;;;;;;5001399;28;20084;-83
2021/07/05 08:01:03;;;;;;;10.20;3.72;;;;;;;;;;5019882;28;20025;-83
2021/07/05 08:03:29;;;;;;;6.88;3.60;;;;;;;;;;4985185;28;20386;-83
2021/07/05 08:05:55;;;;;;;7.47;3.60;;;;;;;;;;5015940;28;20031;-83
2021/07/05 08:08:21;;;;;;;7.60;3.08;;;;;;;;;;5014705;28;20027;-83
2021/07/05 08:10:47;;;;;;;7.78;3.85;;;;;;;;;;5033325;28;20397;-83
2021/07/05 08:13:13;;;;;;;6.45;3.15;;;;;;;;;;5016031;28;20038;-83
2021/07/05 08:15:39;;;;;;;9.23;3.25;;;;;;;;;;5027783;28;20564;-83
2021/07/05 08:18:04;;;;;;;6.22;3.30;;;;;;;;;;5013227;28;20417;-83
2021/07/05 08:20:30;;;;;;;7.75;3.75;;;;;;;;;;5013058;28;20054;-83
2021/07/05 08:22:56;;;;;;;7.28;3.83;;;;;;;;;;4989794;28;20565;-83
2021/07/05 08:25:23;;;;;;;7.65;3.58;;;;;;;;;;5011817;28;20478;-83
2021/07/05 08:27:49;;;;;;;7.45;3.78;;;;;;;;;;5028240;28;20487;-83
2021/07/05 08:30:19;;;;;;;7.57;3.97;;;;;;;;;;5010924;28;20513;-83
2021/07/05 08:32:44;;;;;;;6.90;3.75;;;;;;;;;;5011541;28;20478;-83
2021/07/05 08:35:10;;;;;;;6.97;3.85;;;;;;;;;;5013837;28;20045;-83
2021/07/05 08:37:35;;;;;;;7.28;3.67;;;;;;;;;;4998107;28;20632;-83
2021/07/05 08:40:03;;;;;;;6.78;4.10;;;;;;;;;;5019662;28;20038;-83
2021/07/05 08:42:28;;;;;;;6.95;3.65;;;;;;;;;;5033466;28;20033;-83
2021/07/05 08:44:56;;;;;;;8.55;3.95;;;;;;;;;;5012695;28;20042;-83
2021/07/05 08:47:23;;;;;;;7.43;3.63;;;;;;;;;;5015723;28;20088;-83
2021/07/05 08:49:49;;;;;;;8.00;3.80;;;;;;;;;;5008937;28;20445;-82
2021/07/05 08:52:15;;;;;;;8.43;3.80;;;;;;;;;;5010900;28;20034;-83
2021/07/05 08:54:41;;;;;;;7.57;4.18;;;;;;;;;;5030604;28;20026;-83
2021/07/05 08:57:26;;;;;;;8.38;4.28;;;;;;;;;;5003235;28;20536;-83
2021/07/05 08:59:51;;;;;;;7.15;3.92;;;;;;;;;;5025490;28;20038;-83
2021/07/05 09:02:16;;;;;;;8.15;3.42;;;;;;;;;;5015529;28;20037;-83
2021/07/05 09:04:42;;;;;;;9.40;3.65;;;;;;;;;;5013417;28;20062;-82
2021/07/05 09:07:07;;;;;;;5.70;3.70;;;;;;;;;;5017817;28;20026;-83
2021/07/05 09:09:34;;;;;;;7.10;3.50;;;;;;;;;;5020040;28;20030;-83
2021/07/05 09:12:05;;;;;;;11.35;3.90;;;;;;;;;;5019643;28;20029;-83
2021/07/05 09:14:32;;;;;;;5.63;3.50;;;;;;;;;;5036047;28;20120;-83
2021/07/05 09:16:58;;;;;;;9.63;3.90;;;;;;;;;;5019500;28;20108;-83
2021/07/05 09:19:24;;;;;;;7.68;3.85;;;;;;;;;;5002460;28;20057;-82
2021/07/05 09:21:59;;;;;;;5.82;3.65;;;;;;;;;;5020033;28;20041;-83
2021/07/05 09:24:30;;;;;;;6.40;3.38;;;;;;;;;;5014549;28;20061;-83
2021/07/05 09:27:01;;;;;;;11.32;4.57;;;;;;;;;;5015679;28;20072;-83
2021/07/05 09:29:27;;;;;;;6.97;4.50;;;;;;;;;;5015981;28;20056;-82
2021/07/05 09:31:56;;;;;;;7.93;4.10;;;;;;;;;;4983829;28;20037;-82
2021/07/05 09:34:24;;;;;;;7.43;3.63;;;;;;;;;;5030597;28;20053;-82
2021/07/05 09:36:54;;;;;;;9.05;4.50;;;;;;;;;;5016466;28;20377;-82
2021/07/05 09:39:22;;;;;;;10.98;4.57;;;;;;;;;;5016664;28;20056;-83
2021/07/05 09:41:49;;;;;;;9.32;3.97;;;;;;;;;;5013841;28;20083;-83
2021/07/05 09:44:18;;;;;;;8.88;4.30;;;;;;;;;;5019589;28;20029;-83
2021/07/05 09:46:50;;;;;;;9.65;4.03;;;;;;;;;;5019560;28;20095;-82
2021/07/05 09:49:26;;;;;;;9.43;3.72;;;;;;;;;;5011205;28;20065;-83
2021/07/05 09:52:24;;;;;;;7.53;3.40;;;;;;;;;;5021968;28;20097;-83
2021/07/05 09:54:55;;;;;;;7.75;3.50;;;;;;;;;;5018924;28;20025;-83
2021/07/05 09:57:25;;;;;;;5.40;3.15;;;;;;;;;;5035300;28;20022;-83
2021/07/05 10:00:06;;;;;;;8.55;3.47;;;;;;;;;;5034840;28;20037;-83
2021/07/05 10:02:33;;;;;;;7.18;3.50;;;;;;;;;;5014768;28;20489;-83
2021/07/05 10:05:17;;;;;;;6.13;3.17;;;;;;;;;;5031954;28;20541;-83
2021/07/05 10:07:43;;;;;;;5.40;3.10;;;;;;;;;;5027254;28;20072;-83
2021/07/05 10:10:20;;;;;;;8.45;3.45;;;;;;;;;;5018630;28;20037;-83
2021/07/05 10:12:55;;;;;;;7.55;3.45;;;;;;;;;;5020297;28;20025;-83
2021/07/05 10:15:22;;;;;;;7.80;3.75;;;;;;;;;;5012091;28;20030;-83
2021/07/05 10:17:50;;;;;;;5.90;3.60;;;;;;;;;;5017783;28;20040;-83
2021/07/05 10:20:22;;;;;;;9.20;3.50;;;;;;;;;;5016046;28;20030;-83
2021/07/05 10:22:50;;;;;;;7.50;3.75;;;;;;;;;;5029668;28;20920;-83
2021/07/05 10:25:16;;;;;;;9.82;4.05;;;;;;;;;;5019339;28;20057;-83
2021/07/05 10:27:42;;;;;;;8.82;4.82;;;;;;;;;;5012495;28;20064;-83
2021/07/05 10:30:10;;;;;;;7.97;4.30;;;;;;;;;;5015508;28;20038;-83
2021/07/05 10:32:37;;;;;;;9.07;4.53;;;;;;;;;;5016354;28;20061;-82
2021/07/05 10:35:05;;;;;;;10.55;5.18;;;;;;;;;;4997735;28;20076;-82
2021/07/05 10:37:39;;;;;;;9.45;5.20;;;;;;;;;;4997916;28;20026;-83
2021/07/05 10:40:07;;;;;;;7.45;4.45;;;;;;;;;;5031399;28;20489;-83
2021/07/05 10:42:38;;;;;;;6.70;4.57;;;;;;;;;;5011184;28;20065;-83
2021/07/05 10:45:43;;;;;;;11.52;5.10;;;;;;;;;;5014162;28;20034;-83
2021/07/05 10:48:11;;;;;;;10.05;5.03;;;;;;;;;;5009432;28;20045;-83
2021/07/05 10:50:37;;;;;;;7.90;4.78;;;;;;;;;;5030239;28;20088;-83
2021/07/05 10:53:04;;;;;;;7.70;4.75;;;;;;;;;;5026826;28;20489;-82
2021/07/05 10:55:43;;;;;;;7.50;4.25;;;;;;;;;;5019664;28;20041;-82
2021/07/05 10:58:17;;;;;;;9.00;4.68;;;;;;;;;;5020705;28;20026;-82
2021/07/05 11:00:46;;;;;;;8.02;4.45;;;;;;;;;;5032824;28;20099;-82
2021/07/05 11:03:31;;;;;;;10.90;4.07;;;;;;;;;;5021706;28;20037;-82
2021/07/05 11:05:57;;;;;;;6.40;3.40;;;;;;;;;;5002752;28;20493;-82
2021/07/05 11:08:23;;;;;;;9.30;3.72;;;;;;;;;;4998794;28;20022;-82
2021/07/05 11:11:09;;;;;;;7.18;3.88;;;;;;;;;;5013736;28;20022;-82
2021/07/05 11:13:35;;;;;;;7.30;4.03;;;;;;;;;;5028378;28;20087;-82
2021/07/05 11:16:01;;;;;;;8.30;3.80;;;;;;;;;;5010828;28;20029;-83
2021/07/05 11:18:39;;;;;;;6.90;4.13;;;;;;;;;;5011767;28;20819;-82
2021/07/05 11:21:09;;;;;;;6.55;4.00;;;;;;;;;;5010467;28;20053;-82
2021/07/05 11:23:52;;;;;;;6.10;3.85;;;;;;;;;;5030243;28;20030;-82
2021/07/05 11:26:19;;;;;;;6.22;4.07;;;;;;;;;;5032641;28;20068;-82
2021/07/05 11:28:45;;;;;;;6.35;3.85;;;;;;;;;;5019713;28;20747;-82
2021/07/05 11:31:21;;;;;;;7.47;4.40;;;;;;;;;;5012875;28;20120;-82
2021/07/05 11:33:46;;;;;;;7.70;4.30;;;;;;;;;;5017578;28;20044;-82
2021/07/05 11:36:21;;;;;;;5.97;4.00;;;;;;;;;;5016126;28;20030;-82
2021/07/05 11:38:59;;;;;;;6.50;3.72;;;;;;;;;;5014707;28;20145;-82
2021/07/05 11:41:27;;;;;;;5.68;3.30;;;;;;;;;;5014589;28;20033;-82
2021/07/05 11:44:15;;;;;;;6.78;3.17;;;;;;;;;;5014590;28;20516;-82
2021/07/05 11:46:40;;;;;;;4.07;3.10;;;;;;;;;;5028233;28;20042;-82
2021/07/05 11:49:08;;;;;;;5.50;3.10;;;;;;;;;;5033861;28;20062;-82
2021/07/05 11:51:37;;;;;;;4.30;3.08;;;;;;;;;;5033727;28;20038;-82
2021/07/05 11:54:04;;;;;;;4.55;3.10;;;;;;;;;;5035344;28;20030;-82
2021/07/05 11:56:34;;;;;;;5.78;3.10;;;;;;;;;;5021103;28;20022;-82
2021/07/05 11:59:02;;;;;;;5.40;3.30;;;;;;;;;;5009921;28;20022;-82
2021/07/05 12:01:29;;;;;;;6.43;3.28;;;;;;;;;;5031739;28;20032;-82
2021/07/05 12:03:57;;;;;;;4.32;2.60;;;;;;;;;;5019243;28;20126;-82
2021/07/05 12:06:23;;;;;;;5.28;2.50;;;;;;;;;;5016872;28;20089;-82
2021/07/05 12:08:55;;;;;;;4.03;2.53;;;;;;;;;;5032520;28;20037;-83
2021/07/05 12:11:37;;;;;;;4.57;2.60;;;;;;;;;;5011658;28;20108;-83
2021/07/05 12:14:27;;;;;;;5.15;2.60;;;;;;;;;;5030391;28;20034;-82
2021/07/05 12:16:58;;;;;;;4.32;1.95;;;;;;;;;;5027938;28;20018;-82
2021/07/05 12:19:27;;;;;;;4.78;2.28;;;;;;;;;;5011025;28;20053;-82
2021/07/05 12:21:56;;;;;;;3.55;2.08;;;;;;;;;;5013307;28;20367;-82
2021/07/05 12:24:31;;;;;;;6.20;1.85;;;;;;;;;;5013832;28;20540;-82
2021/07/05 12:26:59;;;;;;;3.72;2.00;;;;;;;;;;5009592;28;20052;-82
2021/07/05 12:29:32;;;;;;;3.38;1.85;;;;;;;;;;5023355;28;20034;-82
2021/07/05 12:32:12;;;;;;;4.38;1.90;;;;;;;;;;5006377;28;20105;-82
2021/07/05 12:35:00;;;;;;;5.32;1.92;;;;;;;;;;5022100;28;20037;-82
2021/07/05 12:37:32;;;;;;;3.08;1.50;;;;;;;;;;5007535;28;20030;-82
2021/07/05 12:40:16;;;;;;;4.07;1.50;;;;;;;;;;5009848;28;20125;-83
2021/07/05 12:42:43;;;;;;;3.20;1.30;;;;;;;;;;5025348;28;20033;-81
2021/07/05 12:45:13;;;;;;;3.80;1.55;;;;;;;;;;5010719;28;20414;-82
2021/07/05 12:47:56;;;;;;;3.50;1.67;;;;;;;;;;5011623;28;20026;-82
2021/07/05 12:50:34;;;;;;;4.20;1.48;;;;;;;;;;5027750;28;20089;-81
2021/07/05 12:53:14;;;;;;;3.50;1.88;;;;;;;;;;5028238;28;20793;-81
2021/07/05 12:56:09;;;;;;;3.42;1.70;;;;;;;;;;5011163;28;20116;-82
2021/07/05 12:58:56;;;;;;;4.43;2.05;;;;;;;;;;5010444;28;20050;-82
2021/07/05 13:01:28;;;;;;;3.78;1.63;;;;;;;;;;5025545;28;20033;-82
2021/07/05 13:04:20;;;;;;;5.88;1.95;;;;;;;;;;5022346;28;20080;-82
2021/07/05 13:06:48;;;;;;;3.80;2.13;;;;;;;;;;5028338;28;20048;-82
2021/07/05 13:09:16;;;;;;;3.80;1.98;;;;;;;;;;5026468;28;20101;-82
2021/07/05 13:11:51;;;;;;;3.88;1.98;;;;;;;;;;5029219;28;20034;-82
2021/07/05 13:14:28;;;;;;;4.93;1.83;;;;;;;;;;5012627;28;20041;-82
2021/07/05 13:17:05;;;;;;;4.38;1.98;;;;;;;;;;5012062;28;20018;-81
2021/07/05 13:19:31;;;;;;;3.85;2.20;;;;;;;;;;5010398;28;20036;-82
2021/07/05 13:21:57;;;;;;;4.47;1.90;;;;;;;;;;5013475;28;20042;-82
2021/07/05 13:24:24;;;;;;;7.75;2.20;;;;;;;;;;5012539;28;20053;-82
2021/07/05 13:26:59;;;;;;;5.82;1.92;;;;;;;;;;5031232;28;20116;-82
2021/07/05 13:29:33;;;;;;;3.65;1.90;;;;;;;;;;5022760;28;20029;-81
2021/07/05 13:32:00;;;;;;;2.60;1.67;;;;;;;;;;5011262;28;20026;-81
2021/07/05 13:34:42;;;;;;;5.63;1.70;;;;;;;;;;5008018;28;20042;-81
2021/07/05 13:37:14;;;;;;;4.32;1.60;;;;;;;;;;5006410;28;20033;-82
2021/07/05 13:39:41;;;;;;;5.82;2.00;;;;;;;;;;5040844;28;20083;-82
2021/07/05 13:42:18;;;;;;;6.20;1.98;;;;;;;;;;5023017;28;20030;-82
2021/07/05 13:44:46;;;;;;;4.43;1.75;;;;;;;;;;5012815;28;20038;-82
2021/07/05 13:47:26;;;;;;;5.32;2.03;;;;;;;;;;5014138;28;20040;-82
2021/07/05 13:50:14;;;;;;;4.80;2.40;;;;;;;;;;5018237;28;20042;-82
2021/07/05 13:52:45;;;;;;;7.72;2.92;;;;;;;;;;5035805;28;20029;-82
2021/07/05 13:55:23;;;;;;;5.22;2.67;;;;;;;;;;5023301;28;20029;-82
2021/07/05 13:57:49;;;;;;;4.50;2.50;;;;;;;;;;5032204;28;20174;-83
2021/07/05 14:00:16;;;;;;;4.13;2.40;;;;;;;;;;5020060;28;20033;-82
2021/07/05 14:02:41;;;;;;;3.53;2.42;;;;;;;;;;5001996;28;20124;-82
2021/07/05 14:05:29;;;;;;;4.32;2.15;;;;;;;;;;5018455;28;20061;-82
2021/07/05 14:07:59;;;;;;;3.30;1.80;;;;;;;;;;5016197;28;20045;-83
2021/07/05 14:10:25;;;;;;;5.03;2.30;;;;;;;;;;5025783;28;20026;-82
2021/07/05 14:12:55;;;;;;;3.88;2.30;;;;;;;;;;5019030;28;20030;-82
2021/07/05 14:15:22;;;;;;;7.35;2.40;;;;;;;;;;5020155;28;20072;-82
2021/07/05 14:17:47;;;;;;;3.85;2.10;;;;;;;;;;5016615;28;20462;-81
2021/07/05 14:20:13;;;;;;;7.13;2.38;;;;;;;;;;5018267;28;20061;-83
2021/07/05 14:22:39;;;;;;;3.72;2.70;;;;;;;;;;5024229;28;21492;-82
2021/07/05 14:25:10;;;;;;;6.50;2.83;;;;;;;;;;5016580;28;20097;-82
2021/07/05 14:27:36;;;;;;;5.22;2.80;;;;;;;;;;5016503;28;20057;-83
2021/07/05 14:30:06;;;;;;;5.35;3.08;;;;;;;;;;5021299;28;20030;-83
2021/07/05 14:32:31;;;;;;;4.18;2.60;;;;;;;;;;5017478;28;20026;-82
2021/07/05 14:34:57;;;;;;;4.10;2.63;;;;;;;;;;5034763;28;20113;-82
2021/07/05 14:37:22;;;;;;;5.93;3.10;;;;;;;;;;5004834;28;20030;-82
2021/07/05 14:39:48;;;;;;;4.93;2.75;;;;;;;;;;5033382;28;20036;-82
2021/07/05 14:42:13;;;;;;;6.03;2.53;;;;;;;;;;5000106;28;20069;-82
2021/07/05 14:44:42;;;;;;;3.25;1.88;;;;;;;;;;5001531;28;20030;-82
2021/07/05 14:47:08;;;;;;;4.60;2.70;;;;;;;;;;5012214;28;20034;-83
2021/07/05 14:49:34;;;;;;;3.55;2.33;;;;;;;;;;4999150;28;20136;-82
2021/07/05 14:51:59;;;;;;;3.72;2.60;;;;;;;;;;5016362;28;20064;-82